createdAt,value
2018-05-27T00:00:19.111Z,9.40
2018-05-27T00:00:56.536Z,10.20
2018-05-27T00:01:31.879Z,9.40
2018-05-27T00:02:07.397Z,9.00
2018-05-27T00:02:44.049Z,7.50
2018-05-27T00:03:19.665Z,10.50
2018-05-27T00:03:55.472Z,9.20
2018-05-27T00:04:30.518Z,9.20
2018-05-27T00:05:06.134Z,8.80
2018-05-27T00:05:42.020Z,8.20
2018-05-27T00:06:17.263Z,8.50
2018-05-27T00:06:52.478Z,8.10
2018-05-27T00:07:28.169Z,7.30
2018-05-27T00:08:03.203Z,7.90
2018-05-27T00:08:39.909Z,7.80
2018-05-27T00:09:15.235Z,7.40
2018-05-27T00:09:50.727Z,8.70
2018-05-27T00:10:26.182Z,6.80
2018-05-27T00:11:03.085Z,9.00
2018-05-27T00:11:38.525Z,11.30
2018-05-27T00:12:13.876Z,9.30
2018-05-27T00:12:50.294Z,9.90
2018-05-27T00:13:25.624Z,10.50
2018-05-27T00:14:00.732Z,9.30
2018-05-27T00:14:37.175Z,9.40
2018-05-27T00:15:12.300Z,7.90
2018-05-27T00:15:48.473Z,7.90
2018-05-27T00:16:23.772Z,9.20
2018-05-27T00:16:59.449Z,8.40
2018-05-27T00:17:34.856Z,7.80
2018-05-27T00:18:10.287Z,7.80
2018-05-27T00:18:46.328Z,9.30
2018-05-27T00:19:21.857Z,10.60
2018-05-27T00:19:57.487Z,8.30
2018-05-27T00:20:34.376Z,10.60
2018-05-27T00:21:10.107Z,8.90
2018-05-27T00:21:45.417Z,8.10
2018-05-27T00:22:20.653Z,8.10
2018-05-27T00:22:56.696Z,8.40
2018-05-27T00:23:31.853Z,7.20
2018-05-27T00:24:07.487Z,8.80
2018-05-27T00:24:42.963Z,8.20
2018-05-27T00:25:18.210Z,7.80
2018-05-27T00:25:53.439Z,9.40
2018-05-27T00:26:28.767Z,10.30
2018-05-27T00:27:04.496Z,10.50
2018-05-27T00:27:39.756Z,10.90
2018-05-27T00:28:14.970Z,6.30
2018-05-27T00:28:50.380Z,6.80
2018-05-27T00:29:25.459Z,9.10
2018-05-27T00:30:00.711Z,8.50
2018-05-27T00:30:36.957Z,11.90
2018-05-27T00:31:15.000Z,13.80
2018-05-27T00:31:50.151Z,9.20
2018-05-27T00:32:25.454Z,10.40
2018-05-27T00:33:00.870Z,11.50
2018-05-27T00:33:36.391Z,11.50
2018-05-27T00:34:12.018Z,8.90
2018-05-27T00:34:48.507Z,12.40
2018-05-27T00:35:23.764Z,12.20
2018-05-27T00:35:58.969Z,7.70
2018-05-27T00:36:34.359Z,9.00
2018-05-27T00:37:10.005Z,9.50
2018-05-27T00:37:45.292Z,8.90
2018-05-27T00:38:20.821Z,10.60
2018-05-27T00:38:56.014Z,8.80
2018-05-27T00:39:31.387Z,8.70
2018-05-27T00:40:06.979Z,9.20
2018-05-27T00:40:42.313Z,10.00
2018-05-27T00:41:17.519Z,10.40
2018-05-27T00:41:53.209Z,8.00
2018-05-27T00:42:28.225Z,8.00
2018-05-27T00:43:03.479Z,9.20
2018-05-27T00:43:39.126Z,8.40
2018-05-27T00:44:14.853Z,8.50
2018-05-27T00:44:50.299Z,10.50
2018-05-27T00:45:25.785Z,9.80
2018-05-27T00:46:01.921Z,8.30
2018-05-27T00:46:37.726Z,8.70
2018-05-27T00:47:13.112Z,6.90
2018-05-27T00:47:48.752Z,8.40
2018-05-27T00:48:24.287Z,6.70
2018-05-27T00:49:01.302Z,7.10
2018-05-27T00:49:37.106Z,10.10
2018-05-27T00:50:12.451Z,11.10
2018-05-27T00:50:49.530Z,7.50
2018-05-27T00:51:25.676Z,11.30
2018-05-27T00:52:00.893Z,10.50
2018-05-27T00:52:36.251Z,7.70
2018-05-27T00:53:12.680Z,8.00
2018-05-27T00:53:47.910Z,9.70
2018-05-27T00:54:23.240Z,9.70
2018-05-27T00:54:59.874Z,8.00
2018-05-27T00:55:35.829Z,8.30
2018-05-27T00:56:11.751Z,7.20
2018-05-27T00:56:47.196Z,6.90
2018-05-27T00:57:22.472Z,9.20
2018-05-27T00:57:58.030Z,7.10
2018-05-27T00:58:33.331Z,9.60
2018-05-27T00:59:08.668Z,12.20
2018-05-27T00:59:43.879Z,10.60
2018-05-27T01:00:19.532Z,8.50
2018-05-27T01:00:58.257Z,9.30
2018-05-27T01:01:33.860Z,10.00
2018-05-27T01:02:09.414Z,11.80
2018-05-27T01:02:45.321Z,9.30
2018-05-27T01:03:20.881Z,10.20
2018-05-27T01:03:56.082Z,8.60
2018-05-27T01:04:31.632Z,9.50
2018-05-27T01:05:06.949Z,8.70
2018-05-27T01:05:45.296Z,8.00
2018-05-27T01:06:20.913Z,7.60
2018-05-27T01:06:56.214Z,7.50
2018-05-27T01:07:31.640Z,11.80
2018-05-27T01:08:07.956Z,9.70
2018-05-27T01:08:43.825Z,8.00
2018-05-27T01:09:19.108Z,8.30
2018-05-27T01:09:54.561Z,12.00
2018-05-27T01:10:29.985Z,12.80
2018-05-27T01:11:05.519Z,9.50
2018-05-27T01:11:41.760Z,8.20
2018-05-27T01:12:16.968Z,13.90
2018-05-27T01:12:52.950Z,14.10
2018-05-27T01:13:28.381Z,8.90
2018-05-27T01:14:03.741Z,9.40
2018-05-27T01:14:39.160Z,7.90
2018-05-27T01:15:14.583Z,9.60
2018-05-27T01:15:51.283Z,10.70
2018-05-27T01:16:26.708Z,7.30
2018-05-27T01:17:02.021Z,6.00
2018-05-27T01:17:37.566Z,7.30
2018-05-27T01:18:12.996Z,7.80
2018-05-27T01:18:48.501Z,15.60
2018-05-27T01:19:23.855Z,13.60
2018-05-27T01:19:59.076Z,8.50
2018-05-27T01:20:34.600Z,8.70
2018-05-27T01:21:12.511Z,7.00
2018-05-27T01:21:48.423Z,7.40
2018-05-27T01:22:23.736Z,9.10
2018-05-27T01:22:59.039Z,12.80
2018-05-27T01:23:34.813Z,8.90
2018-05-27T01:24:10.160Z,10.40
2018-05-27T01:24:45.605Z,12.20
2018-05-27T01:25:21.234Z,10.80
2018-05-27T01:25:58.480Z,9.50
2018-05-27T01:26:33.795Z,8.50
2018-05-27T01:27:09.249Z,9.80
2018-05-27T01:27:44.849Z,10.40
2018-05-27T01:28:22.118Z,11.10
2018-05-27T01:28:57.563Z,8.30
2018-05-27T01:29:33.170Z,7.50
2018-05-27T01:30:08.631Z,7.60
2018-05-27T01:30:46.850Z,9.30
2018-05-27T01:31:22.480Z,9.60
2018-05-27T01:31:58.773Z,9.30
2018-05-27T01:32:34.002Z,8.70
2018-05-27T01:33:09.507Z,17.10
2018-05-27T01:33:45.048Z,14.30
2018-05-27T01:34:20.647Z,8.50
2018-05-27T01:34:57.764Z,9.30
2018-05-27T01:35:33.094Z,8.20
2018-05-27T01:36:08.401Z,8.50
2018-05-27T01:36:46.732Z,8.80
2018-05-27T01:37:22.071Z,7.20
2018-05-27T01:37:58.064Z,8.60
2018-05-27T01:38:33.281Z,8.40
2018-05-27T01:39:08.947Z,8.00
2018-05-27T01:39:44.338Z,8.60
2018-05-27T01:40:19.667Z,7.00
2018-05-27T01:40:55.348Z,7.40
2018-05-27T01:41:31.142Z,10.70
2018-05-27T01:42:06.597Z,9.40
2018-05-27T01:42:41.890Z,8.50
2018-05-27T01:43:17.400Z,8.40
2018-05-27T01:43:53.104Z,7.40
2018-05-27T01:44:30.245Z,6.90
2018-05-27T01:45:05.251Z,7.80
2018-05-27T01:45:41.694Z,7.90
2018-05-27T01:46:17.139Z,7.20
2018-05-27T01:46:52.444Z,8.70
2018-05-27T01:47:27.769Z,8.10
2018-05-27T01:48:02.951Z,8.60
2018-05-27T01:48:39.363Z,9.20
2018-05-27T01:49:14.575Z,8.40
2018-05-27T01:49:49.813Z,11.00
2018-05-27T01:50:25.234Z,12.60
2018-05-27T01:51:00.689Z,9.20
2018-05-27T01:51:36.321Z,9.00
2018-05-27T01:52:11.543Z,9.10
2018-05-27T01:52:47.382Z,9.50
2018-05-27T01:53:22.692Z,10.50
2018-05-27T01:54:06.232Z,7.90
2018-05-27T01:54:41.734Z,7.40
2018-05-27T01:55:16.989Z,7.50
2018-05-27T01:55:53.077Z,7.40
2018-05-27T01:56:28.439Z,10.30
2018-05-27T01:57:03.947Z,10.60
2018-05-27T01:57:39.205Z,8.20
2018-05-27T01:58:16.356Z,8.30
2018-05-27T01:58:52.690Z,7.70
2018-05-27T01:59:28.140Z,8.30
2018-05-27T02:00:03.347Z,9.90
2018-05-27T02:00:42.797Z,9.60
2018-05-27T02:01:19.109Z,9.20
2018-05-27T02:01:54.371Z,8.30
2018-05-27T02:02:29.893Z,8.00
2018-05-27T02:03:05.385Z,9.30
2018-05-27T02:03:41.336Z,10.10
2018-05-27T02:04:16.572Z,7.90
2018-05-27T02:04:52.695Z,7.40
2018-05-27T02:05:27.917Z,12.20
2018-05-27T02:06:04.857Z,9.20
2018-05-27T02:06:41.568Z,7.00
2018-05-27T02:07:17.045Z,8.10
2018-05-27T02:07:52.162Z,9.00
2018-05-27T02:08:27.609Z,7.50
2018-05-27T02:09:03.143Z,9.30
2018-05-27T02:09:41.086Z,11.90
2018-05-27T02:10:16.531Z,11.00
2018-05-27T02:10:53.179Z,10.40
2018-05-27T02:11:29.408Z,14.40
2018-05-27T02:12:04.703Z,9.10
2018-05-27T02:12:41.881Z,7.00
2018-05-27T02:13:17.084Z,8.90
2018-05-27T02:13:52.228Z,9.20
2018-05-27T02:14:29.720Z,8.10
2018-05-27T02:15:05.001Z,8.30
2018-05-27T02:15:41.461Z,9.40
2018-05-27T02:16:17.079Z,10.60
2018-05-27T02:16:52.555Z,9.30
2018-05-27T02:17:29.600Z,8.70
2018-05-27T02:18:05.057Z,9.30
2018-05-27T02:18:40.363Z,8.40
2018-05-27T02:19:17.750Z,8.50
2018-05-27T02:19:53.108Z,7.60
2018-05-27T02:20:28.090Z,7.80
2018-05-27T02:21:03.404Z,9.90
2018-05-27T02:21:38.620Z,6.90
2018-05-27T02:22:14.386Z,8.90
2018-05-27T02:22:49.786Z,13.60
2018-05-27T02:23:25.289Z,14.10
2018-05-27T02:24:00.523Z,10.00
2018-05-27T02:24:38.360Z,8.20
2018-05-27T02:25:13.749Z,7.60
2018-05-27T02:25:48.964Z,8.10
2018-05-27T02:26:24.403Z,9.40
2018-05-27T02:26:59.925Z,9.00
2018-05-27T02:27:35.602Z,8.80
2018-05-27T02:28:13.026Z,10.80
2018-05-27T02:28:51.393Z,8.90
2018-05-27T02:29:30.204Z,11.40
2018-05-27T02:30:05.811Z,11.20
2018-05-27T02:30:44.506Z,7.80
2018-05-27T02:31:19.747Z,8.60
2018-05-27T02:31:54.988Z,9.00
2018-05-27T02:32:34.015Z,9.90
2018-05-27T02:33:12.547Z,11.70
2018-05-27T02:33:48.991Z,10.30
2018-05-27T02:34:25.562Z,10.20
2018-05-27T02:35:01.203Z,10.40
2018-05-27T02:35:36.644Z,7.80
2018-05-27T02:36:11.846Z,8.60
2018-05-27T02:36:51.294Z,9.10
2018-05-27T02:37:26.967Z,6.30
2018-05-27T02:38:06.477Z,7.00
2018-05-27T02:38:44.219Z,8.90
2018-05-27T02:39:20.259Z,8.20
2018-05-27T02:39:57.904Z,7.50
2018-05-27T02:40:33.113Z,7.50
2018-05-27T02:41:10.334Z,10.00
2018-05-27T02:41:45.469Z,8.40
2018-05-27T02:42:20.865Z,9.10
2018-05-27T02:42:56.003Z,8.30
2018-05-27T02:43:31.512Z,8.50
2018-05-27T02:44:07.737Z,8.20
2018-05-27T02:44:44.807Z,10.30
2018-05-27T02:45:20.336Z,12.90
2018-05-27T02:45:58.636Z,9.40
2018-05-27T02:46:33.872Z,8.80
2018-05-27T02:47:09.092Z,8.70
2018-05-27T02:47:44.585Z,10.20
2018-05-27T02:48:20.004Z,10.30
2018-05-27T02:48:55.406Z,10.30
2018-05-27T02:49:30.764Z,8.80
2018-05-27T02:50:06.181Z,11.50
2018-05-27T02:50:41.821Z,10.30
2018-05-27T02:51:17.441Z,8.20
2018-05-27T02:51:52.891Z,8.30
2018-05-27T02:52:28.531Z,7.60
2018-05-27T02:53:07.391Z,9.50
2018-05-27T02:53:43.535Z,9.60
2018-05-27T02:54:19.461Z,10.00
2018-05-27T02:54:54.702Z,10.60
2018-05-27T02:55:29.629Z,8.70
2018-05-27T02:56:06.779Z,9.10
2018-05-27T02:56:43.180Z,8.20
2018-05-27T02:57:18.296Z,8.10
2018-05-27T02:57:53.712Z,8.40
2018-05-27T02:58:29.334Z,9.80
2018-05-27T02:59:05.189Z,8.80
2018-05-27T02:59:41.598Z,7.50
2018-05-27T03:00:16.814Z,8.50
2018-05-27T03:00:53.566Z,10.70
2018-05-27T03:01:28.886Z,10.60
2018-05-27T03:02:07.700Z,8.60
2018-05-27T03:02:43.410Z,7.80
2018-05-27T03:03:21.916Z,8.40
2018-05-27T03:03:57.556Z,10.40
2018-05-27T03:04:33.772Z,8.50
2018-05-27T03:05:14.926Z,9.40
2018-05-27T03:05:51.289Z,10.30
2018-05-27T03:06:27.487Z,9.40
2018-05-27T03:07:02.537Z,9.90
2018-05-27T03:07:37.754Z,9.00
2018-05-27T03:08:15.004Z,7.60
2018-05-27T03:08:50.417Z,8.70
2018-05-27T03:09:27.051Z,9.00
2018-05-27T03:10:05.423Z,10.00
2018-05-27T03:10:47.213Z,11.10
2018-05-27T03:11:22.465Z,11.10
2018-05-27T03:11:57.780Z,11.60
2018-05-27T03:12:34.733Z,12.70
2018-05-27T03:13:10.068Z,10.30
2018-05-27T03:13:46.126Z,10.10
2018-05-27T03:14:22.346Z,8.50
2018-05-27T03:14:58.091Z,8.70
2018-05-27T03:15:33.459Z,10.00
2018-05-27T03:16:08.950Z,12.80
2018-05-27T03:16:44.246Z,11.70
2018-05-27T03:17:19.538Z,9.30
2018-05-27T03:17:57.410Z,10.30
2018-05-27T03:18:32.613Z,13.60
2018-05-27T03:19:09.448Z,14.30
2018-05-27T03:19:45.430Z,9.10
2018-05-27T03:20:21.184Z,15.80
2018-05-27T03:21:02.225Z,9.90
2018-05-27T03:21:37.518Z,9.80
2018-05-27T03:22:12.685Z,10.20
2018-05-27T03:22:47.890Z,7.80
2018-05-27T03:23:23.420Z,7.30
2018-05-27T03:23:58.824Z,9.80
2018-05-27T03:24:34.726Z,14.20
2018-05-27T03:25:10.264Z,13.20
2018-05-27T03:25:49.637Z,9.30
2018-05-27T03:26:25.059Z,10.30
2018-05-27T03:27:00.687Z,7.90
2018-05-27T03:27:35.955Z,9.00
2018-05-27T03:28:11.557Z,9.20
2018-05-27T03:28:47.176Z,9.10
2018-05-27T03:29:23.649Z,8.90
2018-05-27T03:29:59.306Z,9.60
2018-05-27T03:30:34.508Z,8.50
2018-05-27T03:31:09.935Z,9.20
2018-05-27T03:31:45.279Z,8.90
2018-05-27T03:32:20.696Z,7.80
2018-05-27T03:32:56.060Z,12.70
2018-05-27T03:33:31.595Z,14.60
2018-05-27T03:34:07.221Z,12.00
2018-05-27T03:34:45.209Z,15.50
2018-05-27T03:35:21.931Z,12.10
2018-05-27T03:35:58.959Z,12.00
2018-05-27T03:36:34.492Z,13.00
2018-05-27T03:37:10.020Z,10.00
2018-05-27T03:37:45.624Z,9.10
2018-05-27T03:38:21.106Z,9.10
2018-05-27T03:38:56.424Z,9.60
2018-05-27T03:39:34.024Z,8.50
2018-05-27T03:40:09.528Z,10.50
2018-05-27T03:40:46.845Z,12.50
2018-05-27T03:41:22.073Z,9.50
2018-05-27T03:41:58.409Z,8.90
2018-05-27T03:42:33.653Z,8.70
2018-05-27T03:43:09.092Z,7.90
2018-05-27T03:43:44.532Z,9.50
2018-05-27T03:44:20.662Z,13.90
2018-05-27T03:44:56.711Z,10.30
2018-05-27T03:45:31.904Z,11.50
2018-05-27T03:46:10.843Z,11.90
2018-05-27T03:46:46.739Z,10.70
2018-05-27T03:47:21.982Z,9.40
2018-05-27T03:47:57.331Z,10.10
2018-05-27T03:48:32.643Z,9.60
2018-05-27T03:49:07.900Z,10.40
2018-05-27T03:49:46.930Z,10.20
2018-05-27T03:50:22.563Z,11.40
2018-05-27T03:50:57.678Z,10.70
2018-05-27T03:51:33.095Z,9.20
2018-05-27T03:52:08.305Z,9.00
2018-05-27T03:52:44.843Z,13.00
2018-05-27T03:53:20.062Z,13.70
2018-05-27T03:53:55.590Z,8.80
2018-05-27T03:54:30.949Z,8.50
2018-05-27T03:55:06.007Z,9.90
2018-05-27T03:55:41.256Z,13.30
2018-05-27T03:56:16.679Z,11.30
2018-05-27T03:56:51.998Z,8.20
2018-05-27T03:57:27.305Z,8.70
2018-05-27T03:58:03.015Z,10.20
2018-05-27T03:58:38.734Z,10.60
2018-05-27T03:59:14.221Z,10.80
2018-05-27T03:59:51.377Z,14.30
2018-05-27T04:00:29.814Z,13.00
2018-05-27T04:01:05.245Z,8.20
2018-05-27T04:01:43.759Z,8.50
2018-05-27T04:02:19.394Z,8.80
2018-05-27T04:02:54.492Z,9.70
2018-05-27T04:03:30.001Z,10.80
2018-05-27T04:04:05.526Z,11.20
2018-05-27T04:04:42.358Z,11.20
2018-05-27T04:05:17.842Z,10.60
2018-05-27T04:05:53.669Z,9.60
2018-05-27T04:06:28.887Z,10.80
2018-05-27T04:07:04.299Z,11.20
2018-05-27T04:07:40.046Z,8.70
2018-05-27T04:08:15.366Z,8.40
2018-05-27T04:08:52.280Z,16.30
2018-05-27T04:09:27.592Z,13.50
2018-05-27T04:10:06.837Z,11.90
2018-05-27T04:10:46.601Z,13.00
2018-05-27T04:11:21.937Z,11.00
2018-05-27T04:11:57.263Z,10.40
2018-05-27T04:12:32.599Z,14.30
2018-05-27T04:13:07.805Z,12.90
2018-05-27T04:13:43.317Z,9.70
2018-05-27T04:14:18.572Z,10.40
2018-05-27T04:14:54.668Z,10.30
2018-05-27T04:15:30.099Z,11.80
2018-05-27T04:16:05.799Z,10.00
2018-05-27T04:16:44.010Z,12.00
2018-05-27T04:17:19.225Z,11.70
2018-05-27T04:17:54.437Z,11.00
2018-05-27T04:18:30.009Z,12.80
2018-05-27T04:19:05.433Z,13.60
2018-05-27T04:19:40.776Z,10.20
2018-05-27T04:20:16.099Z,9.40
2018-05-27T04:20:52.993Z,7.70
2018-05-27T04:21:28.312Z,8.40
2018-05-27T04:22:03.411Z,10.70
2018-05-27T04:22:38.671Z,13.30
2018-05-27T04:23:13.865Z,9.30
2018-05-27T04:23:49.483Z,10.60
2018-05-27T04:24:25.476Z,9.30
2018-05-27T04:25:01.403Z,9.40
2018-05-27T04:25:37.788Z,11.10
2018-05-27T04:26:13.066Z,10.20
2018-05-27T04:26:51.962Z,10.60
2018-05-27T04:27:27.573Z,10.30
2018-05-27T04:28:02.919Z,10.30
2018-05-27T04:28:38.281Z,12.00
2018-05-27T04:29:13.484Z,12.10
2018-05-27T04:29:50.685Z,9.30
2018-05-27T04:30:26.033Z,8.50
2018-05-27T04:31:06.741Z,9.00
2018-05-27T04:31:42.332Z,11.70
2018-05-27T04:32:17.922Z,12.30
2018-05-27T04:32:53.503Z,10.70
2018-05-27T04:33:28.848Z,11.50
2018-05-27T04:34:04.176Z,10.60
2018-05-27T04:34:40.550Z,8.80
2018-05-27T04:35:15.664Z,11.10
2018-05-27T04:35:51.089Z,12.80
2018-05-27T04:36:26.445Z,13.50
2018-05-27T04:37:01.885Z,12.40
2018-05-27T04:37:37.380Z,11.70
2018-05-27T04:38:12.990Z,9.20
2018-05-27T04:38:48.233Z,8.90
2018-05-27T04:39:26.108Z,10.00
2018-05-27T04:40:01.257Z,10.80
2018-05-27T04:40:36.940Z,8.90
2018-05-27T04:41:12.375Z,8.60
2018-05-27T04:41:47.994Z,10.70
2018-05-27T04:42:23.164Z,12.80
2018-05-27T04:43:00.282Z,11.40
2018-05-27T04:43:36.007Z,11.70
2018-05-27T04:44:11.263Z,11.60
2018-05-27T04:44:47.050Z,16.60
2018-05-27T04:45:22.775Z,18.30
2018-05-27T04:45:58.079Z,9.10
2018-05-27T04:46:33.254Z,8.40
2018-05-27T04:47:08.458Z,8.00
2018-05-27T04:47:44.058Z,8.80
2018-05-27T04:48:19.374Z,8.20
2018-05-27T04:48:54.713Z,8.50
2018-05-27T04:49:29.931Z,11.10
2018-05-27T04:50:05.400Z,11.70
2018-05-27T04:50:44.458Z,8.20
2018-05-27T04:51:19.864Z,8.50
2018-05-27T04:51:55.277Z,8.70
2018-05-27T04:52:30.567Z,7.90
2018-05-27T04:53:06.140Z,9.90
2018-05-27T04:53:43.350Z,10.30
2018-05-27T04:54:18.699Z,10.20
2018-05-27T04:54:54.791Z,11.80
2018-05-27T04:55:30.144Z,9.80
2018-05-27T04:56:05.669Z,10.00
2018-05-27T04:56:41.223Z,7.40
2018-05-27T04:57:16.664Z,7.10
2018-05-27T04:57:51.968Z,6.90
2018-05-27T04:58:27.224Z,11.80
2018-05-27T04:59:02.990Z,12.80
2018-05-27T04:59:38.453Z,8.70
2018-05-27T05:00:13.800Z,8.00
2018-05-27T05:00:55.073Z,7.90
2018-05-27T05:01:32.915Z,8.60
2018-05-27T05:02:08.023Z,8.20
2018-05-27T05:02:44.356Z,10.10
2018-05-27T05:03:19.884Z,11.60
2018-05-27T05:03:56.233Z,8.30
2018-05-27T05:04:31.552Z,7.20
2018-05-27T05:05:07.177Z,7.40
2018-05-27T05:05:46.374Z,9.10
2018-05-27T05:06:21.432Z,9.80
2018-05-27T05:06:56.835Z,9.00
2018-05-27T05:07:32.476Z,9.00
2018-05-27T05:08:07.938Z,7.20
2018-05-27T05:08:44.953Z,8.30
2018-05-27T05:09:21.192Z,11.50
2018-05-27T05:09:56.999Z,9.50
2018-05-27T05:10:32.340Z,10.50
2018-05-27T05:11:07.524Z,10.80
2018-05-27T05:11:45.666Z,6.60
2018-05-27T05:12:21.772Z,10.70
2018-05-27T05:13:02.315Z,12.10
2018-05-27T05:13:37.662Z,9.20
2018-05-27T05:14:14.817Z,7.90
2018-05-27T05:14:54.625Z,5.70
2018-05-27T05:15:30.189Z,9.00
2018-05-27T05:16:05.620Z,10.40
2018-05-27T05:16:42.255Z,7.50
2018-05-27T05:17:17.386Z,9.00
2018-05-27T05:17:54.415Z,7.50
2018-05-27T05:18:29.836Z,9.40
2018-05-27T05:19:05.269Z,11.30
2018-05-27T05:19:42.530Z,6.90
2018-05-27T05:20:17.865Z,7.90
2018-05-27T05:20:56.909Z,10.00
2018-05-27T05:21:33.030Z,7.10
2018-05-27T05:22:09.139Z,10.20
2018-05-27T05:22:46.321Z,8.40
2018-05-27T05:23:21.661Z,8.20
2018-05-27T05:23:58.892Z,7.80
2018-05-27T05:24:34.526Z,8.20
2018-05-27T05:25:10.165Z,9.10
2018-05-27T05:25:46.005Z,6.90
2018-05-27T05:26:21.208Z,7.80
2018-05-27T05:26:56.856Z,10.40
2018-05-27T05:27:31.871Z,8.80
2018-05-27T05:28:08.012Z,7.20
2018-05-27T05:28:44.973Z,8.20
2018-05-27T05:29:20.793Z,6.70
2018-05-27T05:29:57.849Z,6.50
2018-05-27T05:30:34.760Z,7.30
2018-05-27T05:31:12.340Z,7.40
2018-05-27T05:31:47.710Z,6.40
2018-05-27T05:32:22.944Z,7.80
2018-05-27T05:33:01.745Z,10.60
2018-05-27T05:33:37.767Z,10.30
2018-05-27T05:34:13.585Z,9.70
2018-05-27T05:34:50.475Z,11.10
2018-05-27T05:35:25.632Z,8.90
2018-05-27T05:36:01.107Z,8.10
2018-05-27T05:36:36.839Z,7.10
2018-05-27T05:37:16.057Z,7.90
2018-05-27T05:37:51.497Z,8.90
2018-05-27T05:38:27.143Z,8.10
2018-05-27T05:39:06.672Z,7.00
2018-05-27T05:39:42.107Z,7.10
2018-05-27T05:40:17.226Z,6.70
2018-05-27T05:40:55.701Z,7.70
2018-05-27T05:41:35.809Z,6.80
2018-05-27T05:42:13.757Z,6.60
2018-05-27T05:42:49.166Z,11.40
2018-05-27T05:43:24.399Z,9.00
2018-05-27T05:43:59.854Z,7.30
2018-05-27T05:44:37.160Z,7.50
2018-05-27T05:45:15.111Z,6.70
2018-05-27T05:45:51.628Z,7.70
2018-05-27T05:46:26.922Z,6.80
2018-05-27T05:47:02.639Z,5.50
2018-05-27T05:47:39.571Z,7.70
2018-05-27T05:48:15.227Z,6.90
2018-05-27T05:48:50.742Z,6.90
2018-05-27T05:49:25.792Z,8.40
2018-05-27T05:50:00.991Z,6.70
2018-05-27T05:50:36.597Z,7.10
2018-05-27T05:51:15.312Z,7.40
2018-05-27T05:51:50.796Z,6.40
2018-05-27T05:52:26.100Z,6.30
2018-05-27T05:53:01.909Z,6.80
2018-05-27T05:53:37.356Z,7.30
2018-05-27T05:54:12.761Z,8.10
2018-05-27T05:54:50.709Z,7.10
2018-05-27T05:55:26.214Z,8.40
2018-05-27T05:56:01.347Z,7.00
2018-05-27T05:56:36.676Z,7.00
2018-05-27T05:57:12.062Z,6.80
2018-05-27T05:57:47.696Z,7.00
2018-05-27T05:58:23.231Z,8.70
2018-05-27T05:59:02.348Z,9.80
2018-05-27T05:59:40.683Z,9.10
2018-05-27T06:00:17.940Z,8.90
2018-05-27T06:00:53.359Z,7.40
2018-05-27T06:01:28.798Z,7.20
2018-05-27T06:02:04.187Z,7.40
2018-05-27T06:02:40.992Z,6.80
2018-05-27T06:03:16.416Z,6.80
2018-05-27T06:03:57.546Z,7.80
2018-05-27T06:04:34.109Z,9.40
2018-05-27T06:05:12.335Z,9.30
2018-05-27T06:05:51.997Z,6.60
2018-05-27T06:06:27.342Z,8.50
2018-05-27T06:07:02.953Z,8.60
2018-05-27T06:07:40.597Z,8.70
2018-05-27T06:08:16.031Z,6.50
2018-05-27T06:08:51.771Z,6.40
2018-05-27T06:09:26.960Z,6.80
2018-05-27T06:10:02.592Z,7.40
2018-05-27T06:10:39.719Z,8.80
2018-05-27T06:11:15.349Z,7.40
2018-05-27T06:11:52.739Z,6.90
2018-05-27T06:12:28.381Z,9.90
2018-05-27T06:13:03.542Z,9.80
2018-05-27T06:13:40.902Z,8.20
2018-05-27T06:14:16.373Z,8.60
2018-05-27T06:14:51.635Z,8.60
2018-05-27T06:15:28.261Z,7.50
2018-05-27T06:16:04.471Z,6.90
2018-05-27T06:16:42.236Z,6.50
2018-05-27T06:17:18.171Z,6.60
2018-05-27T06:17:53.298Z,6.50
2018-05-27T06:18:28.831Z,7.40
2018-05-27T06:19:04.287Z,5.30
2018-05-27T06:19:39.791Z,7.40
2018-05-27T06:20:15.938Z,10.20
2018-05-27T06:20:51.583Z,8.50
2018-05-27T06:21:29.007Z,7.50
2018-05-27T06:22:04.427Z,7.20
2018-05-27T06:22:40.449Z,6.30
2018-05-27T06:23:15.971Z,7.40
2018-05-27T06:23:51.600Z,12.40
2018-05-27T06:24:26.842Z,9.20
2018-05-27T06:25:06.053Z,7.70
2018-05-27T06:25:43.856Z,5.20
2018-05-27T06:26:22.223Z,5.40
2018-05-27T06:26:57.761Z,10.20
2018-05-27T06:27:38.079Z,8.60
2018-05-27T06:28:14.126Z,5.20
2018-05-27T06:28:50.965Z,5.70
2018-05-27T06:29:26.207Z,8.30
2018-05-27T06:30:01.530Z,8.60
2018-05-27T06:30:37.089Z,7.30
2018-05-27T06:31:14.404Z,8.80
2018-05-27T06:31:51.969Z,5.80
2018-05-27T06:32:27.583Z,5.40
2018-05-27T06:33:03.515Z,9.40
2018-05-27T06:33:39.864Z,9.00
2018-05-27T06:34:15.398Z,5.50
2018-05-27T06:34:53.953Z,5.90
2018-05-27T06:35:29.790Z,6.80
2018-05-27T06:36:06.533Z,5.20
2018-05-27T06:36:44.877Z,5.40
2018-05-27T06:37:20.210Z,5.30
2018-05-27T06:37:55.815Z,5.20
2018-05-27T06:38:31.541Z,6.30
2018-05-27T06:39:07.085Z,6.50
2018-05-27T06:39:45.030Z,5.30
2018-05-27T06:40:20.460Z,5.80
2018-05-27T06:40:56.686Z,7.10
2018-05-27T06:41:32.026Z,7.90
2018-05-27T06:42:08.412Z,8.30
2018-05-27T06:42:48.449Z,6.00
2018-05-27T06:43:24.240Z,9.30
2018-05-27T06:44:00.850Z,6.60
2018-05-27T06:44:41.119Z,7.90
2018-05-27T06:45:18.362Z,6.10
2018-05-27T06:45:58.293Z,5.30
2018-05-27T06:46:36.132Z,5.50
2018-05-27T06:47:11.590Z,5.50
2018-05-27T06:47:47.130Z,5.60
2018-05-27T06:48:22.487Z,6.90
2018-05-27T06:48:57.896Z,6.40
2018-05-27T06:49:33.441Z,7.00
2018-05-27T06:50:08.668Z,8.70
2018-05-27T06:50:44.312Z,8.80
2018-05-27T06:51:19.672Z,6.80
2018-05-27T06:51:56.560Z,5.90
2018-05-27T06:52:32.039Z,4.70
2018-05-27T06:53:07.429Z,5.30
2018-05-27T06:53:42.794Z,6.20
2018-05-27T06:54:18.612Z,6.60
2018-05-27T06:54:58.256Z,5.70
2018-05-27T06:55:33.888Z,5.40
2018-05-27T06:56:09.999Z,6.50
2018-05-27T06:56:45.642Z,5.70
2018-05-27T06:57:24.350Z,7.40
2018-05-27T06:58:03.823Z,8.50
2018-05-27T06:58:39.246Z,7.20
2018-05-27T06:59:14.792Z,5.30
2018-05-27T06:59:50.212Z,5.40
2018-05-27T07:00:25.555Z,5.50
2018-05-27T07:01:01.354Z,6.10
2018-05-27T07:01:36.473Z,6.30
2018-05-27T07:02:11.832Z,6.30
2018-05-27T07:02:47.130Z,5.30
2018-05-27T07:03:22.763Z,5.60
2018-05-27T07:03:58.091Z,6.10
2018-05-27T07:04:33.488Z,8.40
2018-05-27T07:05:08.766Z,6.50
2018-05-27T07:05:45.102Z,6.10
2018-05-27T07:06:20.735Z,8.20
2018-05-27T07:06:55.907Z,7.80
2018-05-27T07:07:31.240Z,8.30
2018-05-27T07:08:06.481Z,8.00
2018-05-27T07:08:41.796Z,5.70
2018-05-27T07:09:17.193Z,6.70
2018-05-27T07:09:52.724Z,8.30
2018-05-27T07:10:28.140Z,7.50
2018-05-27T07:11:03.548Z,5.80
2018-05-27T07:11:39.078Z,6.30
2018-05-27T07:12:14.290Z,7.00
2018-05-27T07:12:49.682Z,8.20
2018-05-27T07:13:25.138Z,6.30
2018-05-27T07:14:00.459Z,5.80
2018-05-27T07:14:35.771Z,5.40
2018-05-27T07:15:10.905Z,7.10
2018-05-27T07:15:48.052Z,6.50
2018-05-27T07:16:23.275Z,6.00
2018-05-27T07:16:58.650Z,5.90
2018-05-27T07:17:34.071Z,6.80
2018-05-27T07:18:09.484Z,7.10
2018-05-27T07:18:45.150Z,5.90
2018-05-27T07:19:20.711Z,5.70
2018-05-27T07:19:56.164Z,5.20
2018-05-27T07:20:31.404Z,5.40
2018-05-27T07:21:07.111Z,6.60
2018-05-27T07:21:44.053Z,6.00
2018-05-27T07:22:19.602Z,5.80
2018-05-27T07:22:54.736Z,6.10
2018-05-27T07:23:30.044Z,7.30
2018-05-27T07:24:05.679Z,6.40
2018-05-27T07:24:41.784Z,7.30
2018-05-27T07:25:17.308Z,7.70
2018-05-27T07:25:52.935Z,5.10
2018-05-27T07:26:28.059Z,5.50
2018-05-27T07:27:03.706Z,5.80
2018-05-27T07:27:39.273Z,7.40
2018-05-27T07:28:14.952Z,7.90
2018-05-27T07:28:50.523Z,5.30
2018-05-27T07:29:26.154Z,5.60
2018-05-27T07:30:01.579Z,5.90
2018-05-27T07:30:37.215Z,5.70
2018-05-27T07:31:12.408Z,5.50
2018-05-27T07:31:50.855Z,4.60
2018-05-27T07:32:25.887Z,6.20
2018-05-27T07:33:01.137Z,6.60
2018-05-27T07:33:36.569Z,5.20
2018-05-27T07:34:11.764Z,5.80
2018-05-27T07:34:47.084Z,5.40
2018-05-27T07:35:22.383Z,7.00
2018-05-27T07:35:58.517Z,7.80
2018-05-27T07:36:33.715Z,8.90
2018-05-27T07:37:09.363Z,9.70
2018-05-27T07:37:44.912Z,5.90
2018-05-27T07:38:20.259Z,5.30
2018-05-27T07:38:55.621Z,5.30
2018-05-27T07:39:30.922Z,6.50
2018-05-27T07:40:06.609Z,6.10
2018-05-27T07:40:42.561Z,6.60
2018-05-27T07:41:17.980Z,6.40
2018-05-27T07:41:53.491Z,4.80
2018-05-27T07:42:30.958Z,5.00
2018-05-27T07:43:06.568Z,8.40
2018-05-27T07:43:41.950Z,6.90
2018-05-27T07:44:17.346Z,7.80
2018-05-27T07:44:52.782Z,6.50
2018-05-27T07:45:28.251Z,5.60
2018-05-27T07:46:03.352Z,5.40
2018-05-27T07:46:39.330Z,5.00
2018-05-27T07:47:15.002Z,5.00
2018-05-27T07:47:50.248Z,5.90
2018-05-27T07:48:25.761Z,5.60
2018-05-27T07:49:02.437Z,7.50
2018-05-27T07:49:37.705Z,6.50
2018-05-27T07:50:14.555Z,5.60
2018-05-27T07:50:53.819Z,5.70
2018-05-27T07:51:31.039Z,6.80
2018-05-27T07:52:07.973Z,7.90
2018-05-27T07:52:44.573Z,7.30
2018-05-27T07:53:20.032Z,6.60
2018-05-27T07:53:55.536Z,6.40
2018-05-27T07:54:31.113Z,5.50
2018-05-27T07:55:06.469Z,5.20